Time,TemperatureF,DewpointF,PressureIn,WindDirection,WindDirectionDegrees,WindSpeedMPH,WindSpeedGustMPH,Humidity,HourlyPrecipIn,Conditions,Clouds,dailyrainin,SoftwareType,DateUTC
2013-06-17 00:02:00,52.0,31.0,-100.00,NE,45,12.0,16.0,43,-99.99,,,-99.99,,2013-06-17 06:02:00,
2013-06-17 00:12:00,51.0,36.0,-100.00,NE,55,10.0,13.0,55,-99.99,,,-99.99,,2013-06-17 06:12:00,
2013-06-17 00:22:00,52.0,42.0,-100.00,NE,45,10.0,14.0,69,-99.99,,,-99.99,,2013-06-17 06:22:00,
2013-06-17 00:33:00,54.0,45.0,-100.00,NE,40,13.0,17.0,72,-99.99,,,-99.99,,2013-06-17 06:33:00,
2013-06-17 00:53:00,51.0,46.0,-100.00,ENE,75,6.0,9.0,81,-99.99,,,-99.99,,2013-06-17 06:53:00,
2013-06-17 01:22:00,53.0,47.0,-100.00,NE,40,7.0,7.0,80,-99.99,,,-99.99,,2013-06-17 07:22:00,
2013-06-17 01:33:00,53.0,47.0,-100.00,NE,40,7.0,9.0,81,-99.99,,,-99.99,,2013-06-17 07:33:00,
2013-06-17 01:42:00,53.0,47.0,-100.00,NE,40,7.0,9.0,80,-99.99,,,-99.99,,2013-06-17 07:42:00,
2013-06-17 01:52:00,53.0,47.0,-100.00,NE,50,7.0,8.0,82,-99.99,,,-99.99,,2013-06-17 07:52:00,
2013-06-17 02:01:00,53.0,47.0,-100.00,NE,55,6.0,7.0,82,-99.99,,,-99.99,,2013-06-17 08:01:00,
2013-06-17 02:11:00,52.0,46.0,-100.00,East,85,4.0,6.0,81,-99.99,,,-99.99,,2013-06-17 08:11:00,
2013-06-17 02:22:00,51.0,46.0,-100.00,SE,130,2.0,4.0,81,-99.99,,,-99.99,,2013-06-17 08:22:00,
2013-06-17 02:33:00,51.0,46.0,-100.00,ENE,70,2.0,4.0,82,-99.99,,,-99.99,,2013-06-17 08:33:00,
2013-06-17 02:43:00,51.0,46.0,-100.00,NE,50,4.0,6.0,82,-99.99,,,-99.99,,2013-06-17 08:43:00,
2013-06-17 02:52:00,52.0,46.0,-100.00,NE,50,7.0,7.0,80,-99.99,,,-99.99,,2013-06-17 08:52:00,
2013-06-17 03:02:00,52.0,46.0,-100.00,NE,50,7.0,7.0,80,-99.99,,,-99.99,,2013-06-17 09:02:00,
2013-06-17 03:11:00,52.0,46.0,-100.00,East,90,5.0,6.0,78,-99.99,,,-99.99,,2013-06-17 09:11:00,
2013-06-17 03:22:00,52.0,46.0,-100.00,East,90,4.0,6.0,78,-99.99,,,-99.99,,2013-06-17 09:22:00,
2013-06-17 03:34:00,52.0,46.0,-100.00,ENE,70,5.0,6.0,78,-99.99,,,-99.99,,2013-06-17 09:34:00,
2013-06-17 03:43:00,51.0,45.0,-100.00,ENE,65,5.0,6.0,79,-99.99,,,-99.99,,2013-06-17 09:43:00,
2013-06-17 03:52:00,51.0,46.0,-100.00,ENE,70,6.0,7.0,81,-99.99,,,-99.99,,2013-06-17 09:52:00,
2013-06-17 04:02:00,52.0,46.0,-100.00,NE,40,7.0,9.0,79,-99.99,,,-99.99,,2013-06-17 10:02:00,
2013-06-17 04:12:00,52.0,46.0,-100.00,NE,55,9.0,9.0,78,-99.99,,,-99.99,,2013-06-17 10:12:00,
2013-06-17 04:22:00,52.0,45.0,-100.00,ENE,60,8.0,9.0,78,-99.99,,,-99.99,,2013-06-17 10:22:00,
2013-06-17 04:33:00,52.0,45.0,-100.00,NE,55,7.0,9.0,78,-99.99,,,-99.99,,2013-06-17 10:33:00,
2013-06-17 04:43:00,52.0,45.0,-100.00,ENE,75,6.0,8.0,77,-99.99,,,-99.99,,2013-06-17 10:43:00,
2013-06-17 04:53:00,52.0,45.0,-100.00,NE,55,8.0,9.0,77,-99.99,,,-99.99,,2013-06-17 10:53:00,
2013-06-17 05:02:00,52.0,45.0,-100.00,NE,55,7.0,9.0,77,-99.99,,,-99.99,,2013-06-17 11:02:00,
2013-06-17 05:12:00,52.0,45.0,-100.00,East,80,6.0,7.0,75,-99.99,,,-99.99,,2013-06-17 11:12:00,
2013-06-17 05:23:00,53.0,44.0,-100.00,East,80,6.0,6.0,73,-99.99,,,-99.99,,2013-06-17 11:23:00,
2013-06-17 05:33:00,52.0,44.0,-100.00,ESE,105,4.0,6.0,73,-99.99,,,-99.99,,2013-06-17 11:33:00,
2013-06-17 05:43:00,52.0,44.0,-100.00,East,100,4.0,4.0,73,-99.99,,,-99.99,,2013-06-17 11:43:00,
2013-06-17 05:53:00,52.0,44.0,-100.00,East,95,4.0,4.0,73,-99.99,,,-99.99,,2013-06-17 11:53:00,
2013-06-17 06:02:00,53.0,44.0,-100.00,East,95,4.0,5.0,71,-99.99,,,-99.99,,2013-06-17 12:02:00,
2013-06-17 06:11:00,53.0,44.0,-100.00,East,80,4.0,5.0,70,-99.99,,,-99.99,,2013-06-17 12:11:00,
2013-06-17 06:22:00,53.0,44.0,-100.00,East,80,6.0,7.0,72,-99.99,,,-99.99,,2013-06-17 12:22:00,
2013-06-17 06:33:00,53.0,44.0,-100.00,East,80,5.0,6.0,70,-99.99,,,-99.99,,2013-06-17 12:33:00,
2013-06-17 06:53:00,54.0,44.0,-100.00,East,80,4.0,4.0,67,-99.99,,,-99.99,,2013-06-17 12:53:00,
2013-06-17 07:01:00,55.0,44.0,-100.00,East,85,4.0,4.0,66,-99.99,,,-99.99,,2013-06-17 13:01:00,
2013-06-17 07:22:00,56.0,44.0,-100.00,ENE,75,6.0,7.0,65,-99.99,,,-99.99,,2013-06-17 13:22:00,
2013-06-17 07:32:00,57.0,45.0,-100.00,East,80,5.0,7.0,63,-99.99,,,-99.99,,2013-06-17 13:32:00,
2013-06-17 07:52:00,59.0,44.0,-100.00,ESE,110,7.0,7.0,57,-99.99,,,-99.99,,2013-06-17 13:52:00,
2013-06-17 08:02:00,60.0,44.0,-100.00,ESE,105,6.0,9.0,56,-99.99,,,-99.99,,2013-06-17 14:02:00,
2013-06-17 08:22:00,60.0,43.0,-100.00,East,85,12.0,17.0,53,-99.99,,,-99.99,,2013-06-17 14:22:00,
2013-06-17 08:34:00,56.0,44.0,-100.00,ENE,70,14.0,19.0,64,-99.99,,,-99.99,,2013-06-17 14:34:00,
2013-06-17 08:43:00,57.0,44.0,-100.00,ENE,70,14.0,18.0,63,-99.99,,,-99.99,,2013-06-17 14:43:00,
2013-06-17 08:53:00,58.0,44.0,-100.00,East,95,10.0,16.0,59,-99.99,,,-99.99,,2013-06-17 14:53:00,
2013-06-17 09:01:00,59.0,44.0,-100.00,ENE,75,10.0,14.0,58,-99.99,,,-99.99,,2013-06-17 15:01:00,
2013-06-17 09:12:00,59.0,44.0,-100.00,ESE,110,7.0,14.0,59,-99.99,,,-99.99,,2013-06-17 15:12:00,
2013-06-17 09:22:00,60.0,45.0,-100.00,ESE,115,7.0,15.0,59,-99.99,,,-99.99,,2013-06-17 15:22:00,
2013-06-17 09:33:00,58.0,46.0,-100.00,East,85,9.0,16.0,64,-99.99,,,-99.99,,2013-06-17 15:33:00,
2013-06-17 09:43:00,58.0,46.0,-100.00,East,90,9.0,13.0,63,-99.99,,,-99.99,,2013-06-17 15:43:00,
2013-06-17 09:52:00,58.0,45.0,-100.00,East,80,10.0,13.0,63,-99.99,,,-99.99,,2013-06-17 15:52:00,
2013-06-17 10:02:00,58.0,45.0,-100.00,East,100,11.0,17.0,61,-99.99,,,-99.99,,2013-06-17 16:02:00,
2013-06-17 10:22:00,60.0,47.0,-100.00,SE,125,9.0,14.0,62,-99.99,,,-99.99,,2013-06-17 16:22:00,
2013-06-17 10:33:00,60.0,47.0,-100.00,ESE,110,13.0,17.0,60,-99.99,,,-99.99,,2013-06-17 16:33:00,
2013-06-17 10:43:00,61.0,47.0,-100.00,SE,140,8.0,17.0,58,-99.99,,,-99.99,,2013-06-17 16:43:00,
2013-06-17 10:53:00,62.0,47.0,-100.00,SE,125,12.0,21.0,56,-99.99,,,-99.99,,2013-06-17 16:53:00,
2013-06-17 11:02:00,63.0,47.0,-100.00,ESE,120,13.0,20.0,54,-99.99,,,-99.99,,2013-06-17 17:02:00,
2013-06-17 11:12:00,63.0,46.0,-100.00,SSE,160,10.0,20.0,53,-99.99,,,-99.99,,2013-06-17 17:12:00,
2013-06-17 11:22:00,65.0,46.0,-100.00,SE,145,13.0,21.0,50,-99.99,,,-99.99,,2013-06-17 17:22:00,
2013-06-17 11:33:00,64.0,46.0,-100.00,SSE,150,11.0,20.0,51,-99.99,,,-99.99,,2013-06-17 17:33:00,
2013-06-17 11:43:00,64.0,46.0,-100.00,ESE,115,16.0,20.0,51,-99.99,,,-99.99,,2013-06-17 17:43:00,
2013-06-17 11:52:00,65.0,46.0,-100.00,SE,140,16.0,21.0,50,-99.99,,,-99.99,,2013-06-17 17:52:00,
2013-06-17 12:02:00,66.0,45.0,-100.00,SSE,155,12.0,23.0,47,-99.99,,,-99.99,,2013-06-17 18:02:00,
2013-06-17 12:12:00,65.0,46.0,-100.00,ESE,120,14.0,23.0,50,-99.99,,,-99.99,,2013-06-17 18:12:00,
2013-06-17 12:23:00,65.0,46.0,-100.00,SSE,165,14.0,23.0,50,-99.99,,,-99.99,,2013-06-17 18:23:00,
2013-06-17 12:33:00,66.0,46.0,-100.00,SE,125,17.0,21.0,49,-99.99,,,-99.99,,2013-06-17 18:33:00,
2013-06-17 12:43:00,66.0,45.0,-100.00,SSE,160,14.0,22.0,47,-99.99,,,-99.99,,2013-06-17 18:43:00,
2013-06-17 12:53:00,64.0,45.0,-100.00,SSE,150,17.0,25.0,50,-99.99,,,-99.99,,2013-06-17 18:53:00,
2013-06-17 13:02:00,62.0,45.0,-100.00,SE,135,17.0,24.0,54,-99.99,,,-99.99,,2013-06-17 19:02:00,
2013-06-17 13:11:00,60.0,44.0,-100.00,SE,130,16.0,24.0,55,-99.99,,,-99.99,,2013-06-17 19:11:00,
2013-06-17 13:22:00,58.0,45.0,-100.00,ESE,105,18.0,24.0,60,-99.99,,,-99.99,,2013-06-17 19:22:00,
2013-06-17 13:33:00,57.0,49.0,-100.00,ESE,115,12.0,18.0,75,-99.99,,,-99.99,,2013-06-17 19:33:00,
2013-06-17 13:43:00,57.0,50.0,-100.00,ESE,115,19.0,22.0,78,-99.99,,,-99.99,,2013-06-17 19:43:00,
2013-06-17 13:53:00,60.0,51.0,-100.00,ESE,120,16.0,22.0,74,-99.99,,,-99.99,,2013-06-17 19:53:00,
2013-06-17 14:02:00,61.0,51.0,-100.00,ESE,120,15.0,22.0,69,-99.99,,,-99.99,,2013-06-17 20:02:00,
2013-06-17 14:11:00,61.0,51.0,-100.00,ENE,75,16.0,19.0,67,-99.99,,,-99.99,,2013-06-17 20:11:00,
2013-06-17 14:22:00,59.0,49.0,-100.00,ENE,65,14.0,24.0,70,-99.99,,,-99.99,,2013-06-17 20:22:00,
2013-06-17 14:34:00,58.0,50.0,-100.00,NE,45,12.0,19.0,74,-99.99,,,-99.99,,2013-06-17 20:34:00,
2013-06-17 14:43:00,58.0,49.0,-100.00,ENE,65,9.0,15.0,72,-99.99,,,-99.99,,2013-06-17 20:43:00,
2013-06-17 14:52:00,59.0,48.0,-100.00,ENE,60,12.0,17.0,66,-99.99,,,-99.99,,2013-06-17 20:52:00,
2013-06-17 15:01:00,59.0,43.0,-100.00,ENE,65,17.0,24.0,56,-99.99,,,-99.99,,2013-06-17 21:01:00,
2013-06-17 15:12:00,58.0,42.0,-100.00,ENE,60,12.0,24.0,54,-99.99,,,-99.99,,2013-06-17 21:12:00,
2013-06-17 15:22:00,59.0,40.0,-100.00,East,80,9.0,18.0,49,-99.99,,,-99.99,,2013-06-17 21:22:00,
2013-06-17 15:33:00,61.0,39.0,-100.00,SE,125,8.0,11.0,45,-99.99,,,-99.99,,2013-06-17 21:33:00,
2013-06-17 15:43:00,65.0,40.0,-100.00,SE,145,7.0,10.0,41,-99.99,,,-99.99,,2013-06-17 21:43:00,
2013-06-17 15:52:00,67.0,38.0,-100.00,South,175,12.0,17.0,34,-99.99,,,-99.99,,2013-06-17 21:52:00,
2013-06-17 16:01:00,67.0,38.0,-100.00,SE,140,15.0,22.0,33,-99.99,,,-99.99,,2013-06-17 22:01:00,
2013-06-17 16:22:00,67.0,39.0,-100.00,South,170,24.0,29.0,35,-99.99,,,-99.99,,2013-06-17 22:22:00,
2013-06-17 16:33:00,67.0,39.0,-100.00,SE,135,16.0,31.0,35,-99.99,,,-99.99,,2013-06-17 22:33:00,
2013-06-17 16:43:00,67.0,39.0,-100.00,SE,135,12.0,22.0,35,-99.99,,,-99.99,,2013-06-17 22:43:00,
2013-06-17 16:53:00,68.0,40.0,-100.00,SSE,150,16.0,22.0,35,-99.99,,,-99.99,,2013-06-17 22:53:00,
2013-06-17 17:02:00,66.0,39.0,-100.00,SSE,155,16.0,20.0,37,-99.99,,,-99.99,,2013-06-17 23:02:00,
2013-06-17 17:11:00,65.0,40.0,-100.00,SE,145,14.0,19.0,39,-99.99,,,-99.99,,2013-06-17 23:11:00,
2013-06-17 17:22:00,67.0,41.0,-100.00,SE,145,13.0,20.0,39,-99.99,,,-99.99,,2013-06-17 23:22:00,
2013-06-17 17:32:00,67.0,41.0,-100.00,SSE,160,10.0,16.0,38,-99.99,,,-99.99,,2013-06-17 23:32:00,
2013-06-17 17:42:00,67.0,41.0,-100.00,SSE,160,12.0,17.0,38,-99.99,,,-99.99,,2013-06-17 23:42:00,
2013-06-17 17:52:00,67.0,41.0,-100.00,SSE,165,11.0,16.0,38,-99.99,,,-99.99,,2013-06-17 23:52:00,
2013-06-17 18:01:00,67.0,41.0,-100.00,SSE,165,12.0,16.0,37,-99.99,,,-99.99,,2013-06-18 00:01:00,
2013-06-17 18:12:00,67.0,41.0,-100.00,SSE,160,9.0,14.0,38,-99.99,,,-99.99,,2013-06-18 00:12:00,
2013-06-17 18:22:00,67.0,41.0,-100.00,South,170,12.0,15.0,37,-99.99,,,-99.99,,2013-06-18 00:22:00,
2013-06-17 18:33:00,67.0,40.0,-100.00,SE,135,8.0,17.0,37,-99.99,,,-99.99,,2013-06-18 00:33:00,
2013-06-17 18:43:00,68.0,41.0,-100.00,SSE,165,9.0,12.0,37,-99.99,,,-99.99,,2013-06-18 00:43:00,
2013-06-17 18:52:00,68.0,41.0,-100.00,SSE,165,8.0,13.0,37,-99.99,,,-99.99,,2013-06-18 00:52:00,
2013-06-17 19:01:00,67.0,40.0,-100.00,ESE,120,7.0,10.0,36,-99.99,,,-99.99,,2013-06-18 01:01:00,
2013-06-17 19:11:00,67.0,40.0,-100.00,SE,135,5.0,7.0,36,-99.99,,,-99.99,,2013-06-18 01:11:00,
2013-06-17 19:23:00,67.0,40.0,-100.00,SSE,165,6.0,9.0,36,-99.99,,,-99.99,,2013-06-18 01:23:00,
2013-06-17 19:34:00,67.0,40.0,-100.00,SE,125,6.0,8.0,36,-99.99,,,-99.99,,2013-06-18 01:34:00,
2013-06-17 19:44:00,67.0,40.0,-100.00,SE,135,6.0,8.0,36,-99.99,,,-99.99,,2013-06-18 01:44:00,
2013-06-17 19:53:00,65.0,39.0,-100.00,ESE,105,6.0,10.0,37,-99.99,,,-99.99,,2013-06-18 01:53:00,
2013-06-17 20:02:00,65.0,39.0,-100.00,ESE,110,7.0,10.0,37,-99.99,,,-99.99,,2013-06-18 02:02:00,
2013-06-17 20:11:00,64.0,39.0,-100.00,SE,125,10.0,12.0,39,-99.99,,,-99.99,,2013-06-18 02:11:00,
2013-06-17 20:22:00,63.0,39.0,-100.00,SE,125,11.0,14.0,40,-99.99,,,-99.99,,2013-06-18 02:22:00,
2013-06-17 20:34:00,63.0,38.0,-100.00,SE,125,9.0,11.0,40,-99.99,,,-99.99,,2013-06-18 02:34:00,
2013-06-17 20:43:00,62.0,38.0,-100.00,ESE,120,10.0,12.0,41,-99.99,,,-99.99,,2013-06-18 02:43:00,
2013-06-17 20:53:00,61.0,38.0,-100.00,ESE,120,9.0,12.0,42,-99.99,,,-99.99,,2013-06-18 02:53:00,
2013-06-17 21:02:00,60.0,38.0,-100.00,SE,130,11.0,15.0,43,-99.99,,,-99.99,,2013-06-18 03:02:00,
2013-06-17 21:12:00,60.0,37.0,-100.00,SE,130,11.0,14.0,43,-99.99,,,-99.99,,2013-06-18 03:12:00,
2013-06-17 21:23:00,57.0,41.0,-100.00,SE,130,26.0,32.0,55,-99.99,,,-99.99,,2013-06-18 03:23:00,
2013-06-17 21:34:00,55.0,46.0,-100.00,SE,125,21.0,29.0,69,-99.99,,,-99.99,,2013-06-18 03:34:00,
2013-06-17 21:53:00,54.0,47.0,-100.00,SE,125,17.0,22.0,76,-99.99,,,-99.99,,2013-06-18 03:53:00,
2013-06-17 22:02:00,53.0,47.0,-100.00,SE,140,16.0,24.0,78,-99.99,,,-99.99,,2013-06-18 04:02:00,
2013-06-17 22:12:00,53.0,47.0,-100.00,SE,145,14.0,21.0,82,-99.99,,,-99.99,,2013-06-18 04:12:00,
2013-06-17 22:22:00,53.0,48.0,-100.00,SE,140,17.0,24.0,83,-99.99,,,-99.99,,2013-06-18 04:22:00,
2013-06-17 22:34:00,52.0,48.0,-100.00,SE,140,14.0,23.0,86,-99.99,,,-99.99,,2013-06-18 04:34:00,
2013-06-17 22:43:00,52.0,48.0,-100.00,SE,130,15.0,23.0,88,-99.99,,,-99.99,,2013-06-18 04:43:00,
2013-06-17 22:53:00,51.0,49.0,-100.00,SE,140,13.0,18.0,92,-99.99,,,-99.99,,2013-06-18 04:53:00,
2013-06-17 23:02:00,51.0,49.0,-100.00,SE,135,12.0,17.0,93,-99.99,,,-99.99,,2013-06-18 05:02:00,
2013-06-17 23:12:00,51.0,50.0,-100.00,SE,140,11.0,15.0,96,-99.99,,,-99.99,,2013-06-18 05:12:00,
2013-06-17 23:22:00,49.0,49.0,-100.00,SE,145,9.0,14.0,99,-99.99,,,-99.99,,2013-06-18 05:22:00,
2013-06-17 23:33:00,49.0,49.0,-100.00,ESE,115,12.0,15.0,99,-99.99,,,-99.99,,2013-06-18 05:33:00,
2013-06-17 23:43:00,49.0,49.0,-100.00,ESE,115,11.0,14.0,99,-99.99,,,-99.99,,2013-06-18 05:43:00,
2013-06-17 23:53:00,49.0,49.0,-100.00,ESE,110,11.0,12.0,99,-99.99,,,-99.99,,2013-06-18 05:53:00,